Time;durP1;ratioP1;P1;durP2;ratioP2;P2;SDS_P1;SDS_P2;PMS_P1;PMS_P2;Temp;Humidity;BMP_temperature;BMP_pressure;BME280_temperature;BME280_humidity;BME280_pressure;Samples;Min_cycle;Max_cycle;Signal;HPM_P1;HPM_P2
2022/03/27 00:01:10;;;;;;;11.83;7.50;;;12.20;42.70;;;-142.21;45.49;112049.66;4954426;29;20535;-74
2022/03/27 00:03:37;;;;;;;12.57;8.10;;;12.10;43.20;;;-142.21;45.11;112049.66;4953797;29;20494;-75
2022/03/27 00:06:04;;;;;;;11.30;7.13;;;12.00;42.80;;;-142.21;45.29;112049.66;4953879;29;20456;-76
2022/03/27 00:08:33;;;;;;;13.67;7.13;;;12.10;42.60;;;-142.21;45.46;112049.66;4937635;29;20544;-78
2022/03/27 00:13:45;;;;;;;15.77;6.97;;;12.00;43.20;;;-142.21;45.93;112049.66;4934443;29;20496;-78
2022/03/27 00:16:13;;;;;;;10.73;7.43;;;11.90;43.20;;;-142.21;46.34;112049.66;4935610;29;20485;-77
2022/03/27 00:18:41;;;;;;;11.20;7.47;;;11.80;43.30;;;-142.21;47.03;112049.66;4934731;29;20457;-77
2022/03/27 00:21:08;;;;;;;14.73;7.20;;;11.80;43.80;;;-142.21;46.79;112049.66;4941290;29;20504;-77
2022/03/27 00:23:38;;;;;;;13.10;7.30;;;11.70;43.90;;;-142.21;46.99;112049.66;4953528;28;20488;-78
2022/03/27 00:26:05;;;;;;;12.43;7.83;;;11.60;44.10;;;-142.21;46.75;112049.66;4954395;28;20992;-78
2022/03/27 00:28:33;;;;;;;14.73;7.23;;;11.60;43.60;;;-142.21;46.99;112049.66;4954601;28;20484;-77
2022/03/27 00:31:01;;;;;;;12.80;7.50;;;11.50;43.50;;;-142.21;46.59;112049.66;4954521;28;20445;-77
2022/03/27 00:33:28;;;;;;;12.77;7.63;;;11.50;43.60;;;-142.21;46.61;112049.66;4953958;28;20452;-76
2022/03/27 00:35:56;;;;;;;12.80;7.40;;;11.50;44.20;;;-142.21;47.11;112049.66;4957384;28;20468;-77
2022/03/27 00:38:24;;;;;;;13.77;7.57;;;11.40;43.90;;;-142.21;46.62;112049.66;4957992;28;21008;-78
2022/03/27 00:40:54;;;;;;;15.60;8.00;;;11.40;43.90;;;-142.21;46.91;112049.66;4957607;28;20544;-78
2022/03/27 00:43:23;;;;;;;13.77;8.77;;;11.40;44.30;;;-142.21;46.73;112049.66;4958186;28;20495;-77
2022/03/27 00:45:51;;;;;;;16.60;8.23;;;11.40;43.70;;;-142.21;46.54;112049.66;4957682;28;20492;-77
2022/03/27 00:48:20;;;;;;;14.30;8.60;;;11.30;43.50;;;-142.21;46.47;112049.66;4957834;28;20460;-78
2022/03/27 00:50:49;;;;;;;17.33;8.07;;;11.30;43.40;;;-142.21;47.07;112049.66;4957702;28;20541;-78
2022/03/27 00:53:17;;;;;;;15.73;8.20;;;11.20;44.10;;;-142.21;47.03;112049.66;4958070;28;20457;-78
2022/03/27 00:55:45;;;;;;;15.00;8.43;;;11.20;43.60;;;-142.21;46.56;112049.66;4958505;28;20479;-77
2022/03/27 00:58:14;;;;;;;17.00;8.83;;;11.20;43.60;;;-142.21;45.95;112049.66;4957768;28;20452;-77
2022/03/27 01:01:05;;;;;;;14.10;7.70;;;11.20;43.70;;;-142.21;46.80;112049.66;4958394;28;20547;-76
2022/03/27 01:03:33;;;;;;;15.57;8.33;;;11.10;44.50;;;-142.21;46.66;112049.66;4957464;29;20432;-77
2022/03/27 01:06:02;;;;;;;11.90;8.20;;;11.00;44.10;;;-142.21;46.44;112049.66;4938277;29;20449;-77
2022/03/27 01:11:19;;;;;;;14.17;8.73;;;10.90;43.90;;;-142.21;46.79;112049.66;4937954;29;20416;-78
2022/03/27 01:13:50;;;;;;;13.23;8.33;;;11.00;44.00;;;-142.21;46.97;112049.66;4938167;29;21021;-78
2022/03/27 01:16:38;;;;;;;16.53;8.73;;;11.00;43.90;;;-142.21;47.09;112049.66;4938867;29;20469;-76
2022/03/27 01:19:07;;;;;;;15.67;8.43;;;11.00;44.00;;;-142.21;46.96;112049.66;4957022;29;20515;-77
2022/03/27 01:21:40;;;;;;;13.70;7.73;;;11.00;44.00;;;-142.21;46.47;112049.66;4957633;28;20468;-77
2022/03/27 01:24:09;;;;;;;15.43;8.10;;;11.00;43.90;;;-142.21;46.69;112049.66;4956571;28;20487;-78
2022/03/27 01:26:38;;;;;;;13.13;8.10;;;10.90;44.30;;;-142.21;47.55;112049.66;4957040;28;20460;-76
2022/03/27 01:29:06;;;;;;;18.63;8.27;;;10.80;45.00;;;-142.21;47.19;112049.66;4957343;28;20503;-78
2022/03/27 01:31:34;;;;;;;14.80;8.50;;;10.70;44.10;;;-142.21;47.71;112049.66;4957480;28;20459;-76
2022/03/27 01:34:02;;;;;;;13.50;8.13;;;10.80;44.40;;;-142.21;47.98;112049.66;4957178;28;20587;-77
2022/03/27 01:36:35;;;;;;;18.23;8.30;;;10.80;44.10;;;-142.21;47.97;112049.66;4956885;28;20644;-77
2022/03/27 01:39:07;;;;;;;16.37;8.60;;;10.80;44.20;;;-142.21;47.21;112049.66;4957553;29;20801;-77
2022/03/27 01:41:35;;;;;;;13.57;8.47;;;10.90;44.10;;;-142.21;48.38;112049.66;4957303;29;20460;-77
2022/03/27 01:44:03;;;;;;;11.87;7.80;;;10.80;44.70;;;-142.21;48.24;112049.66;4957611;28;20481;-77
2022/03/27 01:46:32;;;;;;;15.07;7.80;;;10.60;45.00;;;-142.21;49.57;112049.66;4955811;28;20492;-77
2022/03/27 01:49:01;;;;;;;11.67;7.27;;;10.50;46.10;;;-142.21;49.99;112049.66;4957155;29;20437;-77
2022/03/27 01:51:29;;;;;;;12.63;7.60;;;10.30;46.10;;;-142.21;51.02;112049.66;4956946;28;20484;-77
2022/03/27 01:53:57;;;;;;;14.73;8.00;;;10.30;46.80;;;-142.21;52.01;112049.66;4957030;28;20496;-78
2022/03/27 01:56:26;;;;;;;12.73;7.47;;;10.10;47.30;;;-142.21;52.58;112049.66;4956339;28;20467;-77
2022/03/27 01:58:54;;;;;;;14.63;7.80;;;10.00;47.50;;;-142.21;52.43;112049.66;4956857;28;20516;-78
2022/03/27 02:01:21;;;;;;;16.20;7.77;;;9.90;48.40;;;-142.21;52.39;112049.66;4937133;29;20529;-77
2022/03/27 02:03:50;;;;;;;13.70;8.37;;;9.90;48.40;;;-142.21;52.80;112049.66;4949632;29;20778;-76
2022/03/27 02:06:18;;;;;;;11.93;6.93;;;9.90;48.00;;;-142.21;52.95;112049.66;4956373;28;20484;-77
2022/03/27 02:08:46;;;;;;;12.90;8.13;;;10.00;46.60;;;-142.21;52.72;112049.66;4957088;28;20484;-77
2022/03/27 02:11:14;;;;;;;16.13;8.07;;;10.10;47.40;;;-142.21;52.99;112049.66;4956196;28;20475;-76
2022/03/27 02:13:43;;;;;;;13.40;8.37;;;10.10;47.20;;;-142.21;53.35;112049.66;4956078;29;20891;-76
2022/03/27 02:16:10;;;;;;;14.37;7.30;;;10.00;47.40;;;-142.21;52.93;112049.66;4956060;28;20449;-77
2022/03/27 02:18:41;;;;;;;13.47;7.70;;;10.00;47.20;;;-142.21;52.92;112049.66;4955902;28;20500;-77
2022/03/27 02:21:08;;;;;;;12.53;7.50;;;10.00;47.00;;;-142.21;53.61;112049.66;4956293;29;20441;-76
2022/03/27 02:23:36;;;;;;;18.00;7.80;;;9.90;48.20;;;-142.21;53.24;112049.66;4955497;28;21051;-77
2022/03/27 02:26:03;;;;;;;15.07;8.03;;;9.90;48.00;;;-142.21;52.77;112049.66;4956228;28;20969;-78
2022/03/27 02:28:31;;;;;;;12.10;8.13;;;9.80;48.60;;;-142.21;53.55;112049.66;4940114;28;20450;-77
2022/03/27 02:30:59;;;;;;;13.50;7.97;;;9.70;48.30;;;-142.21;54.07;112049.66;4937112;29;20500;-77
2022/03/27 02:33:27;;;;;;;12.73;8.10;;;9.70;48.10;;;-142.21;54.97;112049.66;4936846;29;20582;-77
2022/03/27 02:35:54;;;;;;;13.87;7.63;;;9.60;49.20;;;-142.21;55.11;112049.66;4936095;29;20497;-77
2022/03/27 02:38:21;;;;;;;12.67;7.30;;;9.60;48.90;;;-142.21;55.84;112049.66;4937413;29;20884;-76
2022/03/27 02:40:49;;;;;;;13.20;7.60;;;9.60;48.50;;;-142.21;55.79;112049.66;4946377;29;20540;-76
2022/03/27 02:43:16;;;;;;;15.03;7.50;;;9.60;49.00;;;-142.21;55.48;112049.66;4956140;28;20448;-76
2022/03/27 02:45:44;;;;;;;12.17;7.73;;;9.60;48.00;;;-142.21;56.56;112049.66;4956025;28;20515;-77
2022/03/27 02:48:13;;;;;;;15.27;7.50;;;9.60;48.40;;;-142.21;57.27;112049.66;4955801;28;20461;-76
2022/03/27 02:50:43;;;;;;;10.70;7.40;;;9.60;49.00;;;-142.21;57.36;112049.66;4956128;28;20547;-76
2022/03/27 02:53:11;;;;;;;10.67;7.43;;;9.40;49.30;;;-142.21;58.05;112049.66;4956111;29;20432;-77
2022/03/27 02:55:38;;;;;;;11.87;7.20;;;9.20;49.30;;;-142.21;58.14;112049.66;4955761;28;20500;-78
2022/03/27 02:58:06;;;;;;;12.50;7.30;;;9.40;49.10;;;-142.21;57.66;112049.66;4954630;28;20535;-76
2022/03/27 03:00:34;;;;;;;16.07;7.90;;;9.40;49.80;;;-142.21;58.32;112049.66;4955818;28;21020;-77
2022/03/27 03:03:01;;;;;;;14.83;7.63;;;9.30;49.60;;;-142.21;58.01;112049.66;4954840;28;20460;-78
2022/03/27 03:05:30;;;;;;;13.23;7.67;;;9.30;49.50;;;-142.21;58.45;112049.66;4955788;29;20528;-77
2022/03/27 03:08:01;;;;;;;13.83;8.13;;;9.30;49.80;;;-142.21;58.36;112049.66;4954823;28;20881;-77
2022/03/27 03:10:29;;;;;;;13.97;8.07;;;9.30;49.70;;;-142.21;58.44;112049.66;4936644;29;20442;-76
2022/03/27 03:12:57;;;;;;;13.70;7.47;;;9.30;49.70;;;-142.21;57.58;112049.66;4936803;29;20519;-78
2022/03/27 03:15:24;;;;;;;13.90;8.23;;;9.30;50.10;;;-142.21;59.28;112049.66;4936314;29;20557;-77
2022/03/27 03:17:52;;;;;;;13.90;8.50;;;9.20;50.40;;;-142.21;59.04;112049.66;4942424;29;20455;-78
2022/03/27 03:20:20;;;;;;;14.37;8.17;;;9.20;50.40;;;-142.21;58.69;112049.66;4966434;28;20513;-76
2022/03/27 03:22:50;;;;;;;15.57;8.70;;;9.20;49.90;;;-142.21;57.22;112049.66;4966178;28;20492;-76
2022/03/27 03:25:17;;;;;;;14.03;7.50;;;9.20;49.60;;;-142.21;58.07;112049.66;4966156;29;20507;-77
2022/03/27 03:27:44;;;;;;;14.27;7.80;;;9.20;49.50;;;-142.21;56.24;112049.66;4966678;28;20881;-75
2022/03/27 03:30:12;;;;;;;15.83;8.20;;;9.20;49.50;;;-142.21;57.29;112049.66;4965687;28;20476;-76
2022/03/27 03:32:39;;;;;;;14.80;7.83;;;9.10;50.00;;;-142.21;58.04;112049.66;4965867;28;20448;-76
2022/03/27 03:35:07;;;;;;;15.20;8.23;;;9.10;50.40;;;-142.21;58.66;112049.66;4965319;28;20497;-76
2022/03/27 03:37:34;;;;;;;12.03;7.23;;;9.10;50.10;;;-142.21;59.39;112049.66;4957004;29;20536;-75
2022/03/27 03:40:06;;;;;;;13.20;8.20;;;9.20;50.80;;;-142.21;59.39;112049.66;4955030;28;20545;-77
2022/03/27 03:42:34;;;;;;;12.57;7.73;;;9.00;50.60;;;-142.21;60.13;112049.66;4954316;29;20584;-76
2022/03/27 03:45:01;;;;;;;9.87;6.50;;;9.10;50.40;;;-142.21;60.03;112049.66;4954884;28;20532;-76
2022/03/27 03:47:28;;;;;;;14.03;7.57;;;9.20;49.90;;;-142.21;59.19;112049.66;4954424;29;20492;-75
2022/03/27 03:49:56;;;;;;;12.70;6.47;;;9.20;50.00;;;-142.21;59.06;112049.66;4954962;28;20445;-77
2022/03/27 03:52:23;;;;;;;13.53;6.73;;;9.20;50.00;;;-142.21;59.25;112049.66;4954263;28;20512;-76
2022/03/27 03:54:50;;;;;;;11.40;7.33;;;9.20;49.60;;;-142.21;59.11;112049.66;4954936;28;20551;-76
2022/03/27 03:57:19;;;;;;;10.60;7.57;;;9.30;49.40;;;-142.21;60.16;112049.66;4954526;28;20494;-76
2022/03/27 03:59:46;;;;;;;15.23;8.20;;;9.30;49.30;;;-142.21;59.40;112049.66;4954234;28;20457;-78
2022/03/27 04:02:18;;;;;;;15.73;7.40;;;9.30;49.20;;;-142.21;59.23;112049.66;4954737;29;20946;-78
2022/03/27 04:04:46;;;;;;;15.60;7.57;;;9.30;49.20;;;-142.21;59.03;112049.66;4949920;29;20449;-77
2022/03/27 04:07:13;;;;;;;12.47;7.43;;;9.10;49.80;;;-142.21;59.38;112049.66;4954641;28;20464;-76
2022/03/27 04:09:40;;;;;;;15.77;8.23;;;9.00;49.90;;;-142.21;59.47;112049.66;4952477;28;20449;-77
2022/03/27 04:12:09;;;;;;;15.93;8.13;;;9.00;50.20;;;-142.21;59.56;112049.66;4954663;28;20453;-74
2022/03/27 04:14:39;;;;;;;14.73;8.07;;;9.00;50.50;;;-142.21;59.66;112049.66;4954067;28;20457;-75
2022/03/27 04:17:06;;;;;;;14.80;8.37;;;9.00;50.00;;;-142.21;60.41;112049.66;4954689;28;20456;-76
2022/03/27 04:19:34;;;;;;;13.20;7.93;;;9.00;50.30;;;-142.21;62.04;112049.66;4953305;28;21044;-77
2022/03/27 04:22:04;;;;;;;16.27;8.43;;;8.90;51.10;;;-142.21;62.64;112049.66;4953853;28;20459;-77
2022/03/27 04:24:32;;;;;;;12.53;8.33;;;8.90;51.40;;;-142.21;63.78;112049.66;4954388;28;20547;-77
2022/03/27 04:26:59;;;;;;;13.90;7.27;;;8.90;51.10;;;-142.21;63.41;112049.66;4953633;28;20488;-76
2022/03/27 04:29:26;;;;;;;13.10;7.97;;;8.90;51.30;;;-142.21;63.04;112049.66;4954509;28;20480;-76
2022/03/27 04:31:54;;;;;;;14.57;8.43;;;8.80;51.30;;;-142.21;64.74;112049.66;4953317;28;20449;-77
2022/03/27 04:34:21;;;;;;;15.90;8.23;;;8.80;52.00;;;-142.21;66.33;112049.66;4953475;28;20548;-78
2022/03/27 04:36:49;;;;;;;13.63;8.93;;;8.70;52.90;;;-142.21;66.72;112049.66;4953674;28;20579;-77
2022/03/27 04:39:16;;;;;;;11.80;8.43;;;8.70;52.20;;;-142.21;65.97;112049.66;4935305;29;20549;-78
2022/03/27 04:41:44;;;;;;;11.93;8.07;;;8.70;52.60;;;-142.21;65.33;112049.66;4935151;29;20449;-77
2022/03/27 04:44:11;;;;;;;16.70;7.97;;;8.70;52.00;;;-142.21;64.18;112049.66;4940717;29;20456;-77
2022/03/27 04:46:39;;;;;;;13.70;8.10;;;8.70;51.00;;;-142.21;63.55;112049.66;4953877;28;20449;-76
2022/03/27 04:49:07;;;;;;;17.73;8.67;;;8.80;51.10;;;-142.21;64.63;112049.66;4953132;29;20967;-77
2022/03/27 04:51:34;;;;;;;13.80;7.77;;;8.80;51.30;;;-142.21;64.63;112049.66;4936621;29;20449;-78
2022/03/27 04:54:02;;;;;;;13.23;7.90;;;8.80;51.40;;;-142.21;63.38;112049.66;4953959;28;20497;-76
2022/03/27 04:56:32;;;;;;;14.33;7.93;;;8.70;51.10;;;-142.21;64.46;112049.66;4954378;28;20500;-77
2022/03/27 04:58:59;;;;;;;15.23;8.57;;;8.70;51.20;;;-142.21;64.27;112049.66;4953346;28;20941;-77
2022/03/27 05:01:26;;;;;;;10.60;7.87;;;8.70;51.20;;;-142.21;65.58;112049.66;4953993;28;20492;-76
2022/03/27 05:03:53;;;;;;;17.57;7.80;;;8.70;50.80;;;-142.21;65.02;112049.66;4952989;28;20451;-78
2022/03/27 05:06:22;;;;;;;16.00;8.80;;;8.70;51.10;;;-142.21;64.34;112049.66;4953075;29;20452;-77
2022/03/27 05:08:51;;;;;;;14.27;7.93;;;8.60;51.10;;;-142.21;65.60;112049.66;4953175;28;20547;-78
2022/03/27 05:11:18;;;;;;;14.43;8.43;;;8.60;51.90;;;-142.21;66.15;112049.66;4953765;28;20455;-78
2022/03/27 05:13:45;;;;;;;12.73;8.20;;;8.70;52.20;;;-142.21;66.16;112049.66;4954330;28;20525;-75
2022/03/27 05:16:12;;;;;;;14.90;8.20;;;8.60;52.10;;;-142.21;67.05;112049.66;4952999;28;20583;-75
2022/03/27 05:18:40;;;;;;;13.27;8.50;;;8.60;52.00;;;-142.21;65.07;112049.66;4953340;28;20535;-78
2022/03/27 05:21:07;;;;;;;15.40;8.53;;;8.60;51.70;;;-142.21;66.81;112049.66;4954215;28;20453;-76
2022/03/27 05:23:36;;;;;;;13.37;8.27;;;8.50;51.30;;;-142.21;66.92;112049.66;4955972;28;20487;-76
2022/03/27 05:26:04;;;;;;;13.83;8.50;;;8.60;51.50;;;-142.21;67.33;112049.66;4938233;29;20458;-77
2022/03/27 05:28:32;;;;;;;12.87;8.07;;;8.60;51.40;;;-142.21;66.35;112049.66;4937637;29;20509;-77
2022/03/27 05:30:59;;;;;;;15.30;8.70;;;8.70;51.40;;;-142.21;68.35;112049.66;4938068;29;20794;-76
2022/03/27 05:33:26;;;;;;;15.37;8.57;;;8.70;52.20;;;-142.21;67.91;112049.66;4937995;29;20456;-76
2022/03/27 05:35:53;;;;;;;16.80;8.70;;;8.60;52.10;;;-142.21;69.69;112049.66;4938314;29;20576;-77
2022/03/27 05:38:21;;;;;;;14.20;9.13;;;8.60;52.10;;;-142.21;70.40;112049.66;4938410;29;20461;-78
2022/03/27 05:40:49;;;;;;;14.40;8.23;;;8.60;52.30;;;-142.21;69.95;112049.66;4937704;29;20540;-78
2022/03/27 05:43:16;;;;;;;15.67;8.63;;;8.70;52.10;;;-142.21;70.63;112049.66;4937683;29;20488;-76
2022/03/27 05:45:44;;;;;;;14.77;8.47;;;8.80;52.80;;;-142.21;68.50;112049.66;4937019;29;20540;-77
2022/03/27 05:48:12;;;;;;;14.93;8.30;;;8.80;52.40;;;-142.21;69.83;112049.66;4938267;29;20536;-78
2022/03/27 05:50:39;;;;;;;15.50;7.87;;;8.80;53.50;;;-142.21;71.97;112049.66;4937090;29;20461;-77
2022/03/27 05:53:07;;;;;;;12.27;8.40;;;8.80;53.30;;;-142.21;72.63;112049.66;4938192;29;20545;-75
2022/03/27 05:55:35;;;;;;;19.43;9.03;;;8.90;53.50;;;-142.21;72.00;112049.66;4940597;29;20515;-77
2022/03/27 05:58:03;;;;;;;14.40;8.83;;;9.10;53.60;;;-142.21;71.66;112049.66;4937419;29;20791;-76
2022/03/27 06:00:31;;;;;;;12.60;8.97;;;9.20;52.60;;;-142.21;73.50;112049.66;4944881;29;20458;-76
2022/03/27 06:02:58;;;;;;;14.63;8.70;;;9.40;53.00;;;-142.21;72.03;112049.66;4955587;28;20457;-77
2022/03/27 06:05:25;;;;;;;14.77;7.70;;;9.50;53.10;;;-142.21;71.25;112049.66;4956949;28;20491;-77
2022/03/27 06:07:55;;;;;;;17.00;9.53;;;9.70;52.80;;;-142.21;71.13;112049.66;4956415;28;20540;-77
2022/03/27 06:10:25;;;;;;;15.30;8.60;;;9.80;52.60;;;-142.21;73.43;112049.66;4938155;29;20445;-73
2022/03/27 06:12:54;;;;;;;12.60;8.77;;;10.00;51.60;;;-142.21;72.42;112049.66;4937031;29;20469;-76
2022/03/27 06:15:23;;;;;;;14.87;9.00;;;10.10;51.60;;;-142.21;77.20;112049.66;4937156;29;20490;-76
2022/03/27 06:17:53;;;;;;;14.47;8.63;;;10.30;51.80;;;-142.21;74.63;112049.66;4948129;29;20539;-76
2022/03/27 06:20:24;;;;;;;13.23;9.20;;;10.40;52.40;;;-142.21;76.81;112049.66;4956681;28;20460;-77
2022/03/27 06:22:52;;;;;;;16.43;8.83;;;10.60;51.90;;;-142.21;76.51;112049.66;4952675;28;20535;-76
2022/03/27 06:25:22;;;;;;;15.37;9.03;;;10.80;51.40;;;-142.21;75.94;112049.66;4955911;28;20556;-77
2022/03/27 06:27:49;;;;;;;12.37;8.57;;;11.00;51.50;;;-142.21;73.72;112049.66;4955616;28;20448;-77
2022/03/27 06:30:20;;;;;;;14.07;8.77;;;11.20;51.10;;;-142.21;70.96;112049.66;4953770;28;20445;-77
2022/03/27 06:32:49;;;;;;;16.30;8.77;;;11.30;51.20;;;-142.21;72.61;112049.66;4954982;28;20461;-77
2022/03/27 06:35:17;;;;;;;16.90;9.20;;;11.60;51.30;;;-142.21;72.63;112049.66;4955689;28;20452;-75
2022/03/27 06:37:46;;;;;;;12.00;8.63;;;11.80;51.00;;;-142.21;72.47;112049.66;4955896;28;20456;-74
2022/03/27 06:40:16;;;;;;;13.23;9.20;;;12.10;50.80;;;-142.21;71.05;112049.66;4955323;28;20453;-77
2022/03/27 06:42:45;;;;;;;14.43;9.57;;;12.50;50.00;;;-142.21;70.83;112049.66;4955306;28;20448;-75
2022/03/27 06:45:14;;;;;;;12.23;8.47;;;12.80;49.50;;;-142.21;72.09;112049.66;4955217;28;20491;-76
2022/03/27 06:47:43;;;;;;;15.17;9.03;;;13.30;49.20;;;-142.21;74.57;112049.66;4955915;28;20460;-78
2022/03/27 06:50:13;;;;;;;15.37;9.13;;;13.80;49.30;;;-142.21;74.85;112049.66;4955152;28;20992;-77
2022/03/27 06:52:42;;;;;;;16.37;8.80;;;14.30;48.80;;;-142.21;77.18;112049.66;4955753;29;20441;-77
2022/03/27 06:55:11;;;;;;;13.43;8.87;;;14.60;48.20;;;-142.21;79.04;112049.66;4955212;28;20552;-75
2022/03/27 06:57:40;;;;;;;11.50;8.37;;;14.80;48.30;;;-142.21;76.67;112049.66;4954415;29;20930;-77
2022/03/27 07:03:03;;;;;;;12.90;8.97;;;15.40;47.90;;;-142.21;80.43;112049.66;4948631;29;20561;-75
2022/03/27 07:05:34;;;;;;;13.67;8.60;;;15.90;47.20;;;-142.21;82.62;112049.66;4955633;29;20516;-76
2022/03/27 07:08:01;;;;;;;11.87;7.93;;;16.20;46.80;;;-142.21;81.59;112049.66;4955879;29;20452;-76
2022/03/27 07:10:29;;;;;;;13.47;9.50;;;16.30;46.80;;;-142.21;80.81;112049.66;4955014;28;20467;-77
2022/03/27 07:12:56;;;;;;;10.50;8.07;;;16.40;46.50;;;-142.21;79.11;112049.66;4954862;29;20445;-77
2022/03/27 07:15:24;;;;;;;13.60;8.63;;;16.50;46.00;;;-142.21;77.54;112049.66;4954949;29;20942;-76
2022/03/27 07:17:54;;;;;;;12.63;9.10;;;16.60;45.30;;;-142.21;76.13;112049.66;4955162;28;20449;-77
2022/03/27 07:20:25;;;;;;;10.70;8.43;;;16.80;45.10;;;-142.21;75.44;112049.66;4954584;28;20569;-74
2022/03/27 07:22:56;;;;;;;14.57;9.77;;;17.20;45.10;;;-142.21;72.54;112049.66;4954119;28;20480;-75
2022/03/27 07:25:25;;;;;;;13.00;9.30;;;17.60;43.80;;;-142.21;71.70;112049.66;4955143;29;20556;-76
2022/03/27 07:27:53;;;;;;;12.50;9.70;;;18.00;43.20;;;-142.21;72.23;112049.66;4954637;28;20237;-76
2022/03/27 07:30:21;;;;;;;15.37;9.47;;;18.20;43.40;;;-142.21;74.53;112049.66;4954401;28;20209;-76
2022/03/27 07:32:52;;;;;;;14.73;9.00;;;18.40;43.20;;;-142.21;70.80;112049.66;4936121;29;20550;-77
2022/03/27 07:35:20;;;;;;;14.37;8.90;;;18.10;42.30;;;-142.21;73.01;112049.66;4954892;29;20284;-75
2022/03/27 07:37:51;;;;;;;12.40;9.00;;;17.80;42.40;;;-142.21;71.02;112049.66;4954535;28;20618;-76
2022/03/27 07:40:21;;;;;;;14.47;9.40;;;17.50;41.90;;;-142.21;71.83;112049.66;4954924;29;20941;-75
2022/03/27 07:42:50;;;;;;;10.63;8.37;;;17.20;43.30;;;-142.21;73.16;112049.66;4952753;28;20459;-76
2022/03/27 07:45:22;;;;;;;15.13;9.10;;;17.20;43.80;;;-142.21;75.15;112049.66;4954525;28;20520;-76
2022/03/27 07:47:52;;;;;;;12.60;8.80;;;17.20;44.20;;;-142.21;71.68;112049.66;4954823;29;20435;-76
2022/03/27 07:50:23;;;;;;;15.33;8.93;;;17.20;43.50;;;-142.21;67.05;112049.66;4955351;29;20465;-75
2022/03/27 07:52:50;;;;;;;13.07;8.53;;;17.30;42.30;;;-142.21;67.70;112049.66;4944691;29;20445;-74
2022/03/27 07:55:21;;;;;;;11.63;8.40;;;17.20;42.00;;;-142.21;66.66;112049.66;4954787;28;20456;-75
2022/03/27 07:57:48;;;;;;;11.03;8.63;;;17.10;42.50;;;-142.21;66.96;112049.66;4954851;29;20481;-77
2022/03/27 08:00:17;;;;;;;12.83;8.77;;;17.10;43.30;;;-142.21;65.74;112049.66;4953918;29;20469;-77
2022/03/27 08:02:46;;;;;;;12.50;8.97;;;17.10;43.20;;;-142.21;67.76;112049.66;4954622;29;20921;-77
2022/03/27 08:05:14;;;;;;;14.70;8.67;;;17.10;43.60;;;-142.21;64.33;112049.66;4953641;28;20539;-79
2022/03/27 08:07:42;;;;;;;12.73;9.37;;;17.10;42.20;;;-142.21;61.37;112049.66;4954935;28;20469;-80
2022/03/27 08:10:11;;;;;;;13.97;8.80;;;16.90;42.10;;;-142.21;58.81;112049.66;4946196;29;20480;-77
2022/03/27 08:12:39;;;;;;;14.03;9.33;;;16.80;41.60;;;-142.21;59.35;112049.66;4952136;28;20547;-79
2022/03/27 08:15:08;;;;;;;13.67;9.07;;;16.70;41.90;;;-142.21;62.39;112049.66;4949007;29;20853;-79
2022/03/27 08:17:36;;;;;;;13.27;9.13;;;16.90;42.90;;;-142.21;59.62;112049.66;4953971;28;20547;-79
2022/03/27 08:20:05;;;;;;;13.33;8.57;;;17.00;42.40;;;-142.21;63.12;112049.66;4953851;28;20843;-78
2022/03/27 08:22:33;;;;;;;13.33;8.87;;;17.10;43.20;;;-142.21;57.36;112049.66;4917302;29;20536;-79
2022/03/27 08:25:01;;;;;;;11.70;8.47;;;17.20;41.80;;;-142.21;60.89;112049.66;4953537;29;20473;-78
2022/03/27 08:27:30;;;;;;;16.20;8.80;;;17.50;43.20;;;-142.21;58.49;112049.66;4950763;28;20497;-80
2022/03/27 08:30:01;;;;;;;16.13;9.87;;;17.80;41.80;;;-142.21;56.21;112049.66;4953043;28;20449;-79
2022/03/27 08:32:29;;;;;;;12.57;9.37;;;17.90;41.30;;;-142.21;55.43;112049.66;4953554;29;20616;-79
2022/03/27 08:34:56;;;;;;;18.10;9.23;;;18.00;41.40;;;-142.21;56.76;112049.66;4970415;28;20447;-80
2022/03/27 08:37:23;;;;;;;15.50;9.37;;;18.00;42.00;;;-142.21;54.29;112049.66;4946229;29;20579;-80
2022/03/27 08:39:53;;;;;;;14.17;9.80;;;18.00;41.00;;;-142.21;54.01;112049.66;4953611;29;20468;-79
2022/03/27 08:42:20;;;;;;;17.03;9.60;;;17.90;40.80;;;-142.21;53.50;112049.66;4950562;28;20488;-80
2022/03/27 08:44:48;;;;;;;12.77;9.50;;;17.90;40.90;;;-142.21;53.77;112049.66;4949239;28;20459;-78
2022/03/27 08:47:24;;;;;;;15.53;9.13;;;18.10;41.70;;;-142.21;50.95;112049.66;4960036;28;20488;-80
2022/03/27 08:50:12;;;;;;;14.13;9.63;;;18.00;40.90;;;-142.21;54.24;112049.66;4950847;29;20449;-78
2022/03/27 08:52:59;;;;;;;12.27;8.50;;;18.10;41.50;;;-142.21;52.88;112049.66;4946654;29;20433;-79
2022/03/27 08:55:39;;;;;;;13.27;9.43;;;18.40;42.20;;;-142.21;50.61;112049.66;4956147;28;20491;-78
2022/03/27 08:58:11;;;;;;;17.17;9.03;;;18.40;40.60;;;-142.21;51.87;112049.66;4957361;29;20520;-80
2022/03/27 09:00:41;;;;;;;13.13;8.93;;;18.80;41.40;;;-142.21;49.55;112049.66;4957547;29;20193;-80
2022/03/27 09:03:09;;;;;;;15.97;9.57;;;19.10;39.70;;;-142.21;49.48;112049.66;4962034;28;20225;-79
2022/03/27 09:05:38;;;;;;;11.60;9.00;;;19.80;39.40;;;-142.21;48.06;112049.66;4957245;28;20205;-78
2022/03/27 09:08:09;;;;;;;15.47;9.93;;;21.10;39.40;;;-142.21;47.12;112049.66;4956745;28;20880;-77
2022/03/27 09:10:38;;;;;;;13.33;8.73;;;22.90;37.40;;;-142.21;48.58;112049.66;4956273;29;20232;-78
2022/03/27 09:13:07;;;;;;;12.13;8.23;;;24.60;35.80;;;-142.21;46.97;112049.66;4970142;28;20565;-79
2022/03/27 09:15:34;;;;;;;13.33;8.53;;;26.00;34.70;;;-142.21;49.62;112049.66;4946593;28;20768;-76
2022/03/27 09:18:04;;;;;;;11.10;8.20;;;27.50;34.10;;;-142.21;46.98;112049.66;4955239;28;20231;-78
2022/03/27 09:20:40;;;;;;;10.47;8.93;;;28.80;31.80;;;-142.21;46.51;112049.66;4951459;29;20194;-77
2022/03/27 09:23:24;;;;;;;13.00;8.53;;;29.60;29.20;;;-142.21;44.56;112049.66;4946922;28;20304;-79
2022/03/27 09:25:56;;;;;;;11.77;9.03;;;30.70;27.30;;;-142.21;45.53;112049.66;4957456;29;20272;-77
2022/03/27 09:28:27;;;;;;;12.00;8.90;;;31.40;28.20;;;-142.21;43.89;112049.66;4951529;28;20227;-78
2022/03/27 09:30:56;;;;;;;11.77;8.33;;;31.60;26.90;;;-142.21;44.84;112049.66;4954244;29;20204;-79
2022/03/27 09:33:36;;;;;;;11.87;9.47;;;32.00;27.30;;;-142.21;41.70;112049.66;4956451;28;20214;-76
2022/03/27 09:36:13;;;;;;;15.57;9.00;;;32.40;26.00;;;-142.21;42.44;112049.66;4955671;29;20211;-75
2022/03/27 09:38:41;;;;;;;10.27;8.17;;;32.80;26.00;;;-142.21;40.68;112049.66;4955248;29;20244;-77
2022/03/27 09:41:34;;;;;;;10.70;8.63;;;33.00;24.40;;;-142.21;40.51;112049.66;4953775;29;20247;-76
2022/03/27 09:44:04;;;;;;;9.97;8.47;;;33.10;24.80;;;-142.21;41.10;112049.66;4956332;29;20290;-75
2022/03/27 09:46:54;;;;;;;9.97;7.73;;;33.40;24.70;;;-142.21;41.35;112049.66;4956688;28;20193;-77
2022/03/27 09:49:25;;;;;;;8.67;7.77;;;33.60;22.70;;;-142.21;38.24;112049.66;4944429;29;20715;-77
2022/03/27 09:51:58;;;;;;;9.03;7.93;;;33.30;22.80;;;-142.21;38.42;112049.66;4955532;29;20219;-78
2022/03/27 09:54:28;;;;;;;11.40;8.80;;;32.90;23.10;;;-142.21;38.10;112049.66;4955839;29;20298;-76
2022/03/27 09:56:57;;;;;;;13.13;9.17;;;32.80;24.60;;;-142.21;38.75;112049.66;4954994;28;20684;-74
2022/03/27 09:59:30;;;;;;;11.57;8.57;;;32.80;24.40;;;-142.21;40.02;112049.66;4952095;29;20205;-77
2022/03/27 10:02:22;;;;;;;9.83;8.33;;;32.80;24.20;;;-142.21;36.85;112049.66;4955841;28;20685;-75
2022/03/27 10:05:05;;;;;;;12.63;9.27;;;33.00;23.50;;;-142.21;36.81;112049.66;4935699;29;21767;-76
2022/03/27 10:07:39;;;;;;;12.47;7.90;;;33.00;23.00;;;-142.21;37.71;112049.66;4955561;28;20284;-77
2022/03/27 10:10:12;;;;;;;9.17;8.20;;;32.50;24.20;;;-142.21;37.09;112049.66;4954821;28;20245;-76
2022/03/27 10:12:43;;;;;;;14.50;8.83;;;32.50;24.70;;;-142.21;37.58;112049.66;4954924;29;20205;-77